sensor_id;sensor_type;location;lat;lon;timestamp;P1;durP1;ratioP1;P2;durP2;ratioP2
75990;SDS011;64673;52.276;10.560;2023-05-28T00:00:49;8.73;;;4.22;;
75990;SDS011;64673;52.276;10.560;2023-05-28T00:03:15;11.20;;;4.47;;
75990;SDS011;64673;52.276;10.560;2023-05-28T00:05:45;10.48;;;4.88;;
75990;SDS011;64673;52.276;10.560;2023-05-28T00:08:11;10.05;;;4.32;;
75990;SDS011;64673;52.276;10.560;2023-05-28T00:10:36;7.22;;;4.30;;
75990;SDS011;64673;52.276;10.560;2023-05-28T00:13:01;13.70;;;4.35;;
75990;SDS011;64673;52.276;10.560;2023-05-28T00:15:27;8.55;;;4.55;;
75990;SDS011;64673;52.276;10.560;2023-05-28T00:17:53;7.95;;;4.57;;
75990;SDS011;64673;52.276;10.560;2023-05-28T00:20:19;8.30;;;4.20;;
75990;SDS011;64673;52.276;10.560;2023-05-28T00:22:45;11.60;;;4.38;;
75990;SDS011;64673;52.276;10.560;2023-05-28T00:25:10;10.65;;;4.47;;
75990;SDS011;64673;52.276;10.560;2023-05-28T00:27:36;8.10;;;4.40;;
75990;SDS011;64673;52.276;10.560;2023-05-28T00:30:02;7.72;;;3.83;;
75990;SDS011;64673;52.276;10.560;2023-05-28T00:32:27;6.50;;;3.72;;
75990;SDS011;64673;52.276;10.560;2023-05-28T00:34:53;9.13;;;3.70;;
75990;SDS011;64673;52.276;10.560;2023-05-28T00:37:18;8.00;;;4.03;;
75990;SDS011;64673;52.276;10.560;2023-05-28T00:39:43;9.88;;;4.20;;
75990;SDS011;64673;52.276;10.560;2023-05-28T00:42:09;8.35;;;4.15;;
75990;SDS011;64673;52.276;10.560;2023-05-28T00:44:37;9.20;;;4.07;;
75990;SDS011;64673;52.276;10.560;2023-05-28T00:47:04;9.02;;;4.13;;
75990;SDS011;64673;52.276;10.560;2023-05-28T00:49:30;10.75;;;4.50;;
75990;SDS011;64673;52.276;10.560;2023-05-28T00:51:59;9.55;;;4.10;;
75990;SDS011;64673;52.276;10.560;2023-05-28T00:54:26;8.88;;;4.60;;
75990;SDS011;64673;52.276;10.560;2023-05-28T00:56:55;6.40;;;3.40;;
75990;SDS011;64673;52.276;10.560;2023-05-28T00:59:22;7.78;;;4.50;;
75990;SDS011;64673;52.276;10.560;2023-05-28T01:01:49;7.88;;;4.32;;
75990;SDS011;64673;52.276;10.560;2023-05-28T01:04:15;10.00;;;4.75;;
75990;SDS011;64673;52.276;10.560;2023-05-28T01:06:40;8.50;;;4.40;;
75990;SDS011;64673;52.276;10.560;2023-05-28T01:09:08;10.43;;;4.30;;
75990;SDS011;64673;52.276;10.560;2023-05-28T01:11:34;8.60;;;4.50;;
75990;SDS011;64673;52.276;10.560;2023-05-28T01:14:02;9.55;;;4.55;;
75990;SDS011;64673;52.276;10.560;2023-05-28T01:16:29;7.75;;;4.43;;
75990;SDS011;64673;52.276;10.560;2023-05-28T01:18:54;8.85;;;4.13;;
75990;SDS011;64673;52.276;10.560;2023-05-28T01:21:21;8.25;;;4.10;;
75990;SDS011;64673;52.276;10.560;2023-05-28T01:23:48;10.98;;;4.20;;
75990;SDS011;64673;52.276;10.560;2023-05-28T01:26:15;9.15;;;3.88;;
75990;SDS011;64673;52.276;10.560;2023-05-28T01:28:47;9.52;;;4.00;;
75990;SDS011;64673;52.276;10.560;2023-05-28T01:31:13;10.07;;;4.38;;
75990;SDS011;64673;52.276;10.560;2023-05-28T01:33:39;10.52;;;4.53;;
75990;SDS011;64673;52.276;10.560;2023-05-28T01:36:07;6.38;;;4.00;;
75990;SDS011;64673;52.276;10.560;2023-05-28T01:38:41;8.18;;;3.47;;
75990;SDS011;64673;52.276;10.560;2023-05-28T01:43:34;8.15;;;3.28;;
75990;SDS011;64673;52.276;10.560;2023-05-28T01:46:00;8.45;;;3.70;;
75990;SDS011;64673;52.276;10.560;2023-05-28T01:48:26;8.02;;;3.65;;
75990;SDS011;64673;52.276;10.560;2023-05-28T01:50:53;8.32;;;3.78;;
75990;SDS011;64673;52.276;10.560;2023-05-28T01:53:18;8.00;;;3.65;;
75990;SDS011;64673;52.276;10.560;2023-05-28T01:55:44;6.13;;;3.55;;
75990;SDS011;64673;52.276;10.560;2023-05-28T01:58:09;5.93;;;3.47;;
75990;SDS011;64673;52.276;10.560;2023-05-28T02:00:35;7.50;;;3.53;;
75990;SDS011;64673;52.276;10.560;2023-05-28T02:03:09;8.10;;;3.65;;
75990;SDS011;64673;52.276;10.560;2023-05-28T02:05:36;6.63;;;3.80;;
75990;SDS011;64673;52.276;10.560;2023-05-28T02:08:02;10.88;;;4.13;;
75990;SDS011;64673;52.276;10.560;2023-05-28T02:10:27;6.22;;;3.72;;
75990;SDS011;64673;52.276;10.560;2023-05-28T02:12:53;7.00;;;3.33;;
75990;SDS011;64673;52.276;10.560;2023-05-28T02:15:20;6.00;;;3.35;;
75990;SDS011;64673;52.276;10.560;2023-05-28T02:17:46;8.00;;;3.60;;
75990;SDS011;64673;52.276;10.560;2023-05-28T02:20:12;11.80;;;3.60;;
75990;SDS011;64673;52.276;10.560;2023-05-28T02:22:39;7.18;;;3.55;;
75990;SDS011;64673;52.276;10.560;2023-05-28T02:25:04;6.93;;;3.50;;
75990;SDS011;64673;52.276;10.560;2023-05-28T02:27:30;5.78;;;3.20;;
75990;SDS011;64673;52.276;10.560;2023-05-28T02:29:55;6.80;;;3.20;;
75990;SDS011;64673;52.276;10.560;2023-05-28T02:32:21;7.40;;;3.30;;
75990;SDS011;64673;52.276;10.560;2023-05-28T02:34:46;6.60;;;3.22;;
75990;SDS011;64673;52.276;10.560;2023-05-28T02:37:11;7.40;;;3.40;;
75990;SDS011;64673;52.276;10.560;2023-05-28T02:39:37;6.75;;;3.60;;
75990;SDS011;64673;52.276;10.560;2023-05-28T02:42:02;7.50;;;3.30;;
75990;SDS011;64673;52.276;10.560;2023-05-28T02:44:28;7.55;;;4.00;;
75990;SDS011;64673;52.276;10.560;2023-05-28T02:46:53;9.80;;;3.75;;
75990;SDS011;64673;52.276;10.560;2023-05-28T02:49:18;7.72;;;3.55;;
75990;SDS011;64673;52.276;10.560;2023-05-28T02:51:44;9.02;;;3.70;;
75990;SDS011;64673;52.276;10.560;2023-05-28T02:54:09;11.43;;;3.60;;
75990;SDS011;64673;52.276;10.560;2023-05-28T02:56:35;7.30;;;3.85;;
75990;SDS011;64673;52.276;10.560;2023-05-28T02:59:00;8.45;;;3.65;;
75990;SDS011;64673;52.276;10.560;2023-05-28T03:01:25;7.43;;;3.30;;
75990;SDS011;64673;52.276;10.560;2023-05-28T03:03:51;6.45;;;3.67;;
75990;SDS011;64673;52.276;10.560;2023-05-28T03:06:17;12.20;;;3.80;;
75990;SDS011;64673;52.276;10.560;2023-05-28T03:08:42;7.32;;;3.65;;
75990;SDS011;64673;52.276;10.560;2023-05-28T03:11:07;9.52;;;4.03;;
75990;SDS011;64673;52.276;10.560;2023-05-28T03:13:33;8.95;;;3.97;;
75990;SDS011;64673;52.276;10.560;2023-05-28T03:15:58;10.30;;;3.53;;
75990;SDS011;64673;52.276;10.560;2023-05-28T03:18:24;8.02;;;3.33;;
75990;SDS011;64673;52.276;10.560;2023-05-28T03:20:49;5.80;;;3.40;;
75990;SDS011;64673;52.276;10.560;2023-05-28T03:23:15;7.35;;;3.20;;
75990;SDS011;64673;52.276;10.560;2023-05-28T03:25:41;7.93;;;3.65;;
75990;SDS011;64673;52.276;10.560;2023-05-28T03:28:06;7.25;;;3.45;;
75990;SDS011;64673;52.276;10.560;2023-05-28T03:30:32;6.97;;;3.53;;
75990;SDS011;64673;52.276;10.560;2023-05-28T03:32:57;7.15;;;3.92;;
75990;SDS011;64673;52.276;10.560;2023-05-28T03:35:22;6.45;;;3.33;;
75990;SDS011;64673;52.276;10.560;2023-05-28T03:37:48;7.05;;;3.20;;
75990;SDS011;64673;52.276;10.560;2023-05-28T03:40:13;7.38;;;3.60;;
75990;SDS011;64673;52.276;10.560;2023-05-28T03:42:38;5.95;;;3.20;;
75990;SDS011;64673;52.276;10.560;2023-05-28T03:45:04;8.68;;;3.42;;
75990;SDS011;64673;52.276;10.560;2023-05-28T03:47:32;7.05;;;3.13;;
75990;SDS011;64673;52.276;10.560;2023-05-28T03:49:58;6.47;;;3.58;;
75990;SDS011;64673;52.276;10.560;2023-05-28T03:52:24;6.97;;;3.53;;
75990;SDS011;64673;52.276;10.560;2023-05-28T03:54:50;8.38;;;3.78;;
75990;SDS011;64673;52.276;10.560;2023-05-28T03:57:15;7.25;;;3.78;;
75990;SDS011;64673;52.276;10.560;2023-05-28T03:59:40;5.40;;;3.40;;
75990;SDS011;64673;52.276;10.560;2023-05-28T04:02:06;7.88;;;3.72;;
75990;SDS011;64673;52.276;10.560;2023-05-28T04:04:31;7.30;;;3.30;;
75990;SDS011;64673;52.276;10.560;2023-05-28T04:06:57;6.82;;;3.58;;
75990;SDS011;64673;52.276;10.560;2023-05-28T04:09:22;5.45;;;3.45;;
75990;SDS011;64673;52.276;10.560;2023-05-28T04:11:48;10.65;;;3.20;;
75990;SDS011;64673;52.276;10.560;2023-05-28T04:14:13;6.35;;;3.67;;
75990;SDS011;64673;52.276;10.560;2023-05-28T04:16:38;6.15;;;3.08;;
75990;SDS011;64673;52.276;10.560;2023-05-28T04:19:04;6.32;;;3.00;;
75990;SDS011;64673;52.276;10.560;2023-05-28T04:21:31;7.07;;;3.20;;
75990;SDS011;64673;52.276;10.560;2023-05-28T04:23:56;7.40;;;3.38;;
75990;SDS011;64673;52.276;10.560;2023-05-28T04:26:22;6.45;;;3.10;;
75990;SDS011;64673;52.276;10.560;2023-05-28T04:28:50;11.52;;;3.20;;
75990;SDS011;64673;52.276;10.560;2023-05-28T04:31:18;6.40;;;3.38;;
75990;SDS011;64673;52.276;10.560;2023-05-28T04:33:43;7.38;;;3.72;;
75990;SDS011;64673;52.276;10.560;2023-05-28T04:36:11;6.47;;;3.75;;
75990;SDS011;64673;52.276;10.560;2023-05-28T04:38:38;8.88;;;4.35;;
75990;SDS011;64673;52.276;10.560;2023-05-28T04:41:04;8.98;;;5.15;;
75990;SDS011;64673;52.276;10.560;2023-05-28T04:43:30;8.00;;;5.38;;
75990;SDS011;64673;52.276;10.560;2023-05-28T04:45:56;9.20;;;4.80;;
75990;SDS011;64673;52.276;10.560;2023-05-28T04:48:24;11.77;;;5.07;;
75990;SDS011;64673;52.276;10.560;2023-05-28T04:50:50;8.95;;;4.40;;
75990;SDS011;64673;52.276;10.560;2023-05-28T04:53:16;9.65;;;4.57;;
75990;SDS011;64673;52.276;10.560;2023-05-28T04:55:41;7.45;;;4.40;;
75990;SDS011;64673;52.276;10.560;2023-05-28T04:58:07;8.98;;;3.83;;
75990;SDS011;64673;52.276;10.560;2023-05-28T05:00:32;8.48;;;3.63;;
75990;SDS011;64673;52.276;10.560;2023-05-28T05:03:00;9.02;;;3.58;;
75990;SDS011;64673;52.276;10.560;2023-05-28T05:05:25;10.10;;;3.20;;
75990;SDS011;64673;52.276;10.560;2023-05-28T05:07:51;8.32;;;3.78;;
75990;SDS011;64673;52.276;10.560;2023-05-28T05:10:17;7.72;;;3.35;;
75990;SDS011;64673;52.276;10.560;2023-05-28T05:12:42;6.13;;;3.38;;
75990;SDS011;64673;52.276;10.560;2023-05-28T05:15:07;5.82;;;3.15;;
75990;SDS011;64673;52.276;10.560;2023-05-28T05:17:33;5.30;;;3.20;;
75990;SDS011;64673;52.276;10.560;2023-05-28T05:20:00;7.07;;;3.40;;
75990;SDS011;64673;52.276;10.560;2023-05-28T05:22:30;6.80;;;2.83;;
75990;SDS011;64673;52.276;10.560;2023-05-28T05:24:56;6.78;;;3.13;;
75990;SDS011;64673;52.276;10.560;2023-05-28T05:27:22;6.97;;;2.70;;
75990;SDS011;64673;52.276;10.560;2023-05-28T05:29:47;6.32;;;2.88;;
75990;SDS011;64673;52.276;10.560;2023-05-28T05:32:12;7.03;;;2.92;;
75990;SDS011;64673;52.276;10.560;2023-05-28T05:34:38;8.85;;;3.45;;
75990;SDS011;64673;52.276;10.560;2023-05-28T05:37:03;7.53;;;2.72;;
75990;SDS011;64673;52.276;10.560;2023-05-28T05:39:29;4.57;;;2.40;;
75990;SDS011;64673;52.276;10.560;2023-05-28T05:41:54;7.05;;;2.60;;
75990;SDS011;64673;52.276;10.560;2023-05-28T05:44:20;6.53;;;2.50;;
75990;SDS011;64673;52.276;10.560;2023-05-28T05:46:46;7.65;;;3.30;;
75990;SDS011;64673;52.276;10.560;2023-05-28T05:49:11;5.22;;;2.80;;
75990;SDS011;64673;52.276;10.560;2023-05-28T05:51:37;7.60;;;3.30;;
75990;SDS011;64673;52.276;10.560;2023-05-28T05:54:02;7.13;;;2.80;;
75990;SDS011;64673;52.276;10.560;2023-05-28T05:56:28;5.53;;;2.45;;
75990;SDS011;64673;52.276;10.560;2023-05-28T05:58:53;7.05;;;2.72;;
75990;SDS011;64673;52.276;10.560;2023-05-28T06:01:19;8.05;;;3.10;;
75990;SDS011;64673;52.276;10.560;2023-05-28T06:03:46;6.82;;;2.92;;
75990;SDS011;64673;52.276;10.560;2023-05-28T06:06:11;4.88;;;2.42;;
75990;SDS011;64673;52.276;10.560;2023-05-28T06:08:37;8.82;;;3.15;;
75990;SDS011;64673;52.276;10.560;2023-05-28T06:11:02;7.60;;;2.65;;
75990;SDS011;64673;52.276;10.560;2023-05-28T06:13:28;6.45;;;2.72;;
75990;SDS011;64673;52.276;10.560;2023-05-28T06:15:53;6.78;;;2.50;;
75990;SDS011;64673;52.276;10.560;2023-05-28T06:18:19;6.55;;;2.40;;
75990;SDS011;64673;52.276;10.560;2023-05-28T06:23:11;4.28;;;2.17;;
75990;SDS011;64673;52.276;10.560;2023-05-28T06:25:37;5.43;;;2.42;;
75990;SDS011;64673;52.276;10.560;2023-05-28T06:28:02;3.80;;;1.52;;
75990;SDS011;64673;52.276;10.560;2023-05-28T06:30:28;4.55;;;1.80;;
75990;SDS011;64673;52.276;10.560;2023-05-28T06:32:54;5.57;;;1.80;;
75990;SDS011;64673;52.276;10.560;2023-05-28T06:35:19;5.40;;;1.92;;
75990;SDS011;64673;52.276;10.560;2023-05-28T06:37:45;5.80;;;2.28;;
75990;SDS011;64673;52.276;10.560;2023-05-28T06:40:10;7.10;;;2.25;;
75990;SDS011;64673;52.276;10.560;2023-05-28T06:42:36;5.97;;;2.00;;
75990;SDS011;64673;52.276;10.560;2023-05-28T06:45:03;7.18;;;2.13;;
75990;SDS011;64673;52.276;10.560;2023-05-28T06:47:29;5.43;;;2.00;;
75990;SDS011;64673;52.276;10.560;2023-05-28T06:49:54;3.83;;;1.83;;
75990;SDS011;64673;52.276;10.560;2023-05-28T06:52:20;6.05;;;2.50;;
75990;SDS011;64673;52.276;10.560;2023-05-28T06:54:46;4.57;;;1.83;;
75990;SDS011;64673;52.276;10.560;2023-05-28T06:57:11;3.38;;;1.60;;
75990;SDS011;64673;52.276;10.560;2023-05-28T06:59:36;4.40;;;1.58;;
75990;SDS011;64673;52.276;10.560;2023-05-28T07:02:02;5.07;;;1.67;;
75990;SDS011;64673;52.276;10.560;2023-05-28T07:04:27;6.00;;;1.52;;
75990;SDS011;64673;52.276;10.560;2023-05-28T07:06:53;4.55;;;1.65;;
75990;SDS011;64673;52.276;10.560;2023-05-28T07:09:18;4.25;;;1.90;;
75990;SDS011;64673;52.276;10.560;2023-05-28T07:11:44;4.13;;;1.58;;
75990;SDS011;64673;52.276;10.560;2023-05-28T07:14:09;3.90;;;1.80;;
75990;SDS011;64673;52.276;10.560;2023-05-28T07:16:34;4.63;;;1.85;;
75990;SDS011;64673;52.276;10.560;2023-05-28T07:19:00;5.32;;;1.67;;
75990;SDS011;64673;52.276;10.560;2023-05-28T07:21:25;5.20;;;2.30;;
75990;SDS011;64673;52.276;10.560;2023-05-28T07:23:51;3.75;;;1.80;;
75990;SDS011;64673;52.276;10.560;2023-05-28T07:26:16;4.75;;;1.60;;
75990;SDS011;64673;52.276;10.560;2023-05-28T07:28:41;4.22;;;2.50;;
75990;SDS011;64673;52.276;10.560;2023-05-28T07:31:07;3.35;;;1.40;;
75990;SDS011;64673;52.276;10.560;2023-05-28T07:33:32;6.32;;;1.42;;
75990;SDS011;64673;52.276;10.560;2023-05-28T07:35:57;2.45;;;1.23;;
75990;SDS011;64673;52.276;10.560;2023-05-28T07:38:23;3.47;;;1.48;;
75990;SDS011;64673;52.276;10.560;2023-05-28T07:40:49;5.93;;;1.60;;
75990;SDS011;64673;52.276;10.560;2023-05-28T07:43:14;3.90;;;1.55;;
75990;SDS011;64673;52.276;10.560;2023-05-28T07:45:40;3.17;;;1.08;;
75990;SDS011;64673;52.276;10.560;2023-05-28T07:48:05;3.58;;;1.33;;
75990;SDS011;64673;52.276;10.560;2023-05-28T07:50:30;3.03;;;1.20;;
75990;SDS011;64673;52.276;10.560;2023-05-28T07:52:56;3.05;;;1.13;;
75990;SDS011;64673;52.276;10.560;2023-05-28T07:55:21;4.82;;;1.52;;
75990;SDS011;64673;52.276;10.560;2023-05-28T07:57:46;3.25;;;1.10;;
75990;SDS011;64673;52.276;10.560;2023-05-28T08:00:12;2.58;;;1.27;;
75990;SDS011;64673;52.276;10.560;2023-05-28T08:02:44;4.75;;;1.20;;
75990;SDS011;64673;52.276;10.560;2023-05-28T08:05:10;4.22;;;1.30;;
75990;SDS011;64673;52.276;10.560;2023-05-28T08:07:35;3.92;;;0.93;;
75990;SDS011;64673;52.276;10.560;2023-05-28T08:10:01;2.50;;;1.30;;
75990;SDS011;64673;52.276;10.560;2023-05-28T08:12:27;4.32;;;1.05;;
75990;SDS011;64673;52.276;10.560;2023-05-28T08:14:52;2.58;;;1.15;;
75990;SDS011;64673;52.276;10.560;2023-05-28T08:17:20;2.95;;;1.05;;
75990;SDS011;64673;52.276;10.560;2023-05-28T08:19:46;2.92;;;1.30;;
75990;SDS011;64673;52.276;10.560;2023-05-28T08:22:12;4.03;;;1.30;;
75990;SDS011;64673;52.276;10.560;2023-05-28T08:24:37;3.10;;;1.00;;
75990;SDS011;64673;52.276;10.560;2023-05-28T08:27:02;4.80;;;1.33;;
75990;SDS011;64673;52.276;10.560;2023-05-28T08:29:28;2.08;;;0.90;;
75990;SDS011;64673;52.276;10.560;2023-05-28T08:31:53;2.80;;;1.00;;
75990;SDS011;64673;52.276;10.560;2023-05-28T08:34:18;2.70;;;1.38;;
75990;SDS011;64673;52.276;10.560;2023-05-28T08:36:44;2.63;;;1.17;;
75990;SDS011;64673;52.276;10.560;2023-05-28T08:39:10;2.78;;;1.15;;
75990;SDS011;64673;52.276;10.560;2023-05-28T08:41:36;4.95;;;0.88;;
75990;SDS011;64673;52.276;10.560;2023-05-28T08:44:02;3.25;;;1.00;;
75990;SDS011;64673;52.276;10.560;2023-05-28T08:46:27;2.40;;;1.10;;
75990;SDS011;64673;52.276;10.560;2023-05-28T08:48:56;2.65;;;1.23;;
75990;SDS011;64673;52.276;10.560;2023-05-28T08:51:23;3.22;;;1.20;;
75990;SDS011;64673;52.276;10.560;2023-05-28T08:53:50;2.30;;;0.90;;
75990;SDS011;64673;52.276;10.560;2023-05-28T08:56:16;3.38;;;1.27;;
75990;SDS011;64673;52.276;10.560;2023-05-28T08:58:43;2.83;;;1.10;;
75990;SDS011;64673;52.276;10.560;2023-05-28T09:01:09;2.15;;;0.80;;
75990;SDS011;64673;52.276;10.560;2023-05-28T09:03:37;2.22;;;1.00;;
75990;SDS011;64673;52.276;10.560;2023-05-28T09:06:04;2.65;;;1.48;;
75990;SDS011;64673;52.276;10.560;2023-05-28T09:08:29;3.90;;;1.30;;
75990;SDS011;64673;52.276;10.560;2023-05-28T09:10:56;4.80;;;0.95;;
75990;SDS011;64673;52.276;10.560;2023-05-28T09:13:22;1.83;;;1.08;;
75990;SDS011;64673;52.276;10.560;2023-05-28T09:15:51;2.65;;;1.17;;
75990;SDS011;64673;52.276;10.560;2023-05-28T09:18:20;3.47;;;0.95;;
75990;SDS011;64673;52.276;10.560;2023-05-28T09:20:47;5.35;;;1.30;;
75990;SDS011;64673;52.276;10.560;2023-05-28T09:23:15;6.18;;;1.13;;
75990;SDS011;64673;52.276;10.560;2023-05-28T09:25:41;2.28;;;1.10;;
75990;SDS011;64673;52.276;10.560;2023-05-28T09:28:07;3.10;;;1.33;;
75990;SDS011;64673;52.276;10.560;2023-05-28T09:30:35;4.40;;;1.15;;
75990;SDS011;64673;52.276;10.560;2023-05-28T09:33:02;5.28;;;1.40;;
75990;SDS011;64673;52.276;10.560;2023-05-28T09:35:29;2.78;;;1.23;;
75990;SDS011;64673;52.276;10.560;2023-05-28T09:37:59;3.75;;;1.20;;
75990;SDS011;64673;52.276;10.560;2023-05-28T09:40:26;3.00;;;1.30;;
75990;SDS011;64673;52.276;10.560;2023-05-28T09:42:51;3.42;;;1.20;;
75990;SDS011;64673;52.276;10.560;2023-05-28T09:45:22;3.22;;;1.25;;
75990;SDS011;64673;52.276;10.560;2023-05-28T09:47:48;3.17;;;0.93;;
75990;SDS011;64673;52.276;10.560;2023-05-28T09:50:14;4.65;;;1.38;;
75990;SDS011;64673;52.276;10.560;2023-05-28T09:52:39;2.67;;;1.08;;
75990;SDS011;64673;52.276;10.560;2023-05-28T09:55:08;3.72;;;1.30;;
75990;SDS011;64673;52.276;10.560;2023-05-28T09:57:38;2.90;;;1.23;;
75990;SDS011;64673;52.276;10.560;2023-05-28T10:00:09;2.83;;;1.20;;
75990;SDS011;64673;52.276;10.560;2023-05-28T10:03:09;2.83;;;1.35;;
75990;SDS011;64673;52.276;10.560;2023-05-28T10:05:51;4.10;;;1.02;;
75990;SDS011;64673;52.276;10.560;2023-05-28T10:08:17;4.63;;;1.40;;
75990;SDS011;64673;52.276;10.560;2023-05-28T10:10:49;3.58;;;1.42;;
75990;SDS011;64673;52.276;10.560;2023-05-28T10:13:17;4.60;;;1.35;;
75990;SDS011;64673;52.276;10.560;2023-05-28T10:15:42;3.08;;;1.20;;
75990;SDS011;64673;52.276;10.560;2023-05-28T10:18:08;3.00;;;1.30;;
75990;SDS011;64673;52.276;10.560;2023-05-28T10:20:33;3.22;;;1.50;;
75990;SDS011;64673;52.276;10.560;2023-05-28T10:22:59;2.92;;;1.27;;
75990;SDS011;64673;52.276;10.560;2023-05-28T10:25:25;4.32;;;1.23;;
75990;SDS011;64673;52.276;10.560;2023-05-28T10:27:53;2.72;;;1.00;;
75990;SDS011;64673;52.276;10.560;2023-05-28T10:33:24;4.47;;;1.42;;
75990;SDS011;64673;52.276;10.560;2023-05-28T10:35:53;3.58;;;1.02;;
75990;SDS011;64673;52.276;10.560;2023-05-28T10:38:20;3.25;;;1.30;;
75990;SDS011;64673;52.276;10.560;2023-05-28T10:40:46;2.63;;;1.00;;
75990;SDS011;64673;52.276;10.560;2023-05-28T10:46:16;4.85;;;1.33;;
75990;SDS011;64673;52.276;10.560;2023-05-28T10:51:45;3.67;;;1.20;;
75990;SDS011;64673;52.276;10.560;2023-05-28T11:02:25;2.53;;;1.10;;
75990;SDS011;64673;52.276;10.560;2023-05-28T11:04:58;3.28;;;1.30;;
75990;SDS011;64673;52.276;10.560;2023-05-28T11:07:33;2.78;;;1.40;;
75990;SDS011;64673;52.276;10.560;2023-05-28T11:10:04;4.22;;;1.55;;
75990;SDS011;64673;52.276;10.560;2023-05-28T11:12:31;5.28;;;1.33;;
75990;SDS011;64673;52.276;10.560;2023-05-28T11:15:02;4.32;;;1.20;;
75990;SDS011;64673;52.276;10.560;2023-05-28T11:19:54;5.20;;;1.10;;
75990;SDS011;64673;52.276;10.560;2023-05-28T11:22:20;3.55;;;1.40;;
75990;SDS011;64673;52.276;10.560;2023-05-28T11:25:04;3.65;;;1.45;;
75990;SDS011;64673;52.276;10.560;2023-05-28T11:27:31;2.30;;;1.20;;
75990;SDS011;64673;52.276;10.560;2023-05-28T11:29:59;2.65;;;1.23;;
75990;SDS011;64673;52.276;10.560;2023-05-28T11:32:27;4.97;;;2.20;;
75990;SDS011;64673;52.276;10.560;2023-05-28T11:37:23;6.90;;;1.40;;
75990;SDS011;64673;52.276;10.560;2023-05-28T11:39:51;4.05;;;1.30;;
75990;SDS011;64673;52.276;10.560;2023-05-28T11:42:20;5.28;;;1.67;;
75990;SDS011;64673;52.276;10.560;2023-05-28T11:44:47;5.05;;;1.30;;
75990;SDS011;64673;52.276;10.560;2023-05-28T11:47:13;2.80;;;1.33;;
75990;SDS011;64673;52.276;10.560;2023-05-28T11:49:40;5.57;;;1.50;;
75990;SDS011;64673;52.276;10.560;2023-05-28T11:52:09;3.60;;;1.38;;
75990;SDS011;64673;52.276;10.560;2023-05-28T11:54:41;5.85;;;1.65;;
75990;SDS011;64673;52.276;10.560;2023-05-28T11:57:08;5.22;;;1.38;;
75990;SDS011;64673;52.276;10.560;2023-05-28T11:59:34;6.00;;;1.65;;
75990;SDS011;64673;52.276;10.560;2023-05-28T12:04:39;2.75;;;1.42;;
75990;SDS011;64673;52.276;10.560;2023-05-28T12:07:04;2.80;;;1.58;;
75990;SDS011;64673;52.276;10.560;2023-05-28T12:09:30;4.88;;;1.85;;
75990;SDS011;64673;52.276;10.560;2023-05-28T12:12:06;4.13;;;1.73;;
75990;SDS011;64673;52.276;10.560;2023-05-28T12:14:35;6.30;;;2.00;;
75990;SDS011;64673;52.276;10.560;2023-05-28T12:17:04;3.70;;;1.42;;
75990;SDS011;64673;52.276;10.560;2023-05-28T12:19:31;3.08;;;1.80;;
75990;SDS011;64673;52.276;10.560;2023-05-28T12:21:57;3.42;;;1.50;;
75990;SDS011;64673;52.276;10.560;2023-05-28T12:24:23;2.35;;;1.45;;
75990;SDS011;64673;52.276;10.560;2023-05-28T12:26:52;3.38;;;1.40;;
75990;SDS011;64673;52.276;10.560;2023-05-28T12:29:17;2.85;;;1.40;;
75990;SDS011;64673;52.276;10.560;2023-05-28T12:31:42;4.75;;;2.00;;
75990;SDS011;64673;52.276;10.560;2023-05-28T12:34:09;4.00;;;1.60;;
75990;SDS011;64673;52.276;10.560;2023-05-28T12:39:00;4.47;;;1.57;;
75990;SDS011;64673;52.276;10.560;2023-05-28T12:41:25;4.50;;;1.85;;
75990;SDS011;64673;52.276;10.560;2023-05-28T12:43:51;4.68;;;1.60;;
75990;SDS011;64673;52.276;10.560;2023-05-28T12:46:17;3.38;;;1.70;;
75990;SDS011;64673;52.276;10.560;2023-05-28T12:48:42;5.10;;;1.95;;
75990;SDS011;64673;52.276;10.560;2023-05-28T12:51:09;3.55;;;1.98;;
75990;SDS011;64673;52.276;10.560;2023-05-28T12:53:35;3.45;;;1.83;;
75990;SDS011;64673;52.276;10.560;2023-05-28T12:56:00;3.15;;;1.60;;
75990;SDS011;64673;52.276;10.560;2023-05-28T12:58:25;6.07;;;2.03;;
75990;SDS011;64673;52.276;10.560;2023-05-28T13:00:52;5.53;;;1.90;;
75990;SDS011;64673;52.276;10.560;2023-05-28T13:03:17;4.95;;;1.55;;
75990;SDS011;64673;52.276;10.560;2023-05-28T13:05:42;3.40;;;1.60;;
75990;SDS011;64673;52.276;10.560;2023-05-28T13:08:08;3.65;;;1.90;;
75990;SDS011;64673;52.276;10.560;2023-05-28T13:10:33;4.28;;;1.70;;
75990;SDS011;64673;52.276;10.560;2023-05-28T13:12:59;4.55;;;1.85;;
75990;SDS011;64673;52.276;10.560;2023-05-28T13:15:24;5.45;;;1.80;;
75990;SDS011;64673;52.276;10.560;2023-05-28T13:17:50;4.38;;;1.83;;
75990;SDS011;64673;52.276;10.560;2023-05-28T13:20:15;4.07;;;1.80;;
75990;SDS011;64673;52.276;10.560;2023-05-28T13:22:41;3.92;;;1.85;;
75990;SDS011;64673;52.276;10.560;2023-05-28T13:25:07;4.03;;;2.00;;
75990;SDS011;64673;52.276;10.560;2023-05-28T13:27:33;4.22;;;1.67;;
75990;SDS011;64673;52.276;10.560;2023-05-28T13:29:59;4.78;;;1.80;;
75990;SDS011;64673;52.276;10.560;2023-05-28T13:32:25;5.55;;;1.90;;
75990;SDS011;64673;52.276;10.560;2023-05-28T13:34:51;3.65;;;1.80;;
75990;SDS011;64673;52.276;10.560;2023-05-28T13:37:16;3.35;;;1.60;;
75990;SDS011;64673;52.276;10.560;2023-05-28T13:39:42;3.40;;;1.60;;
75990;SDS011;64673;52.276;10.560;2023-05-28T13:42:07;6.10;;;1.85;;
75990;SDS011;64673;52.276;10.560;2023-05-28T13:44:33;3.05;;;1.58;;
75990;SDS011;64673;52.276;10.560;2023-05-28T13:49:25;3.15;;;1.67;;
75990;SDS011;64673;52.276;10.560;2023-05-28T13:51:50;3.35;;;1.70;;
75990;SDS011;64673;52.276;10.560;2023-05-28T13:54:16;4.80;;;1.77;;
75990;SDS011;64673;52.276;10.560;2023-05-28T13:56:42;4.57;;;1.98;;
75990;SDS011;64673;52.276;10.560;2023-05-28T13:59:07;6.63;;;1.90;;
75990;SDS011;64673;52.276;10.560;2023-05-28T14:01:33;4.20;;;1.92;;
75990;SDS011;64673;52.276;10.560;2023-05-28T14:04:01;5.55;;;1.85;;
75990;SDS011;64673;52.276;10.560;2023-05-28T14:06:26;5.03;;;1.67;;
75990;SDS011;64673;52.276;10.560;2023-05-28T14:08:52;3.28;;;1.90;;
75990;SDS011;64673;52.276;10.560;2023-05-28T14:11:17;2.65;;;1.55;;
75990;SDS011;64673;52.276;10.560;2023-05-28T14:13:43;3.15;;;1.80;;
75990;SDS011;64673;52.276;10.560;2023-05-28T14:16:09;5.80;;;1.98;;
75990;SDS011;64673;52.276;10.560;2023-05-28T14:18:34;4.35;;;1.83;;
75990;SDS011;64673;52.276;10.560;2023-05-28T14:20:59;3.05;;;1.67;;
75990;SDS011;64673;52.276;10.560;2023-05-28T14:23:25;3.78;;;1.88;;
75990;SDS011;64673;52.276;10.560;2023-05-28T14:25:50;3.22;;;1.83;;
75990;SDS011;64673;52.276;10.560;2023-05-28T14:28:16;4.10;;;1.75;;
75990;SDS011;64673;52.276;10.560;2023-05-28T14:30:42;3.45;;;2.28;;
75990;SDS011;64673;52.276;10.560;2023-05-28T14:33:08;4.20;;;1.85;;
75990;SDS011;64673;52.276;10.560;2023-05-28T14:35:34;5.68;;;1.88;;
75990;SDS011;64673;52.276;10.560;2023-05-28T14:38:00;2.40;;;1.70;;
75990;SDS011;64673;52.276;10.560;2023-05-28T14:40:25;4.00;;;1.90;;
75990;SDS011;64673;52.276;10.560;2023-05-28T14:42:50;4.35;;;1.98;;
75990;SDS011;64673;52.276;10.560;2023-05-28T14:45:16;2.90;;;1.70;;
75990;SDS011;64673;52.276;10.560;2023-05-28T14:47:42;3.95;;;1.30;;
75990;SDS011;64673;52.276;10.560;2023-05-28T14:50:07;4.38;;;1.80;;
75990;SDS011;64673;52.276;10.560;2023-05-28T14:52:33;5.68;;;1.67;;
75990;SDS011;64673;52.276;10.560;2023-05-28T14:54:59;3.42;;;1.83;;
75990;SDS011;64673;52.276;10.560;2023-05-28T14:57:26;3.03;;;1.70;;
75990;SDS011;64673;52.276;10.560;2023-05-28T14:59:52;2.30;;;1.40;;
75990;SDS011;64673;52.276;10.560;2023-05-28T15:02:23;2.63;;;1.50;;